createdAt,value
2023-05-19T00:01:37.634Z,70.00
2023-05-19T00:04:05.792Z,68.00
2023-05-19T00:06:36.400Z,70.50
2023-05-19T00:09:09.633Z,71.30
2023-05-19T00:11:39.102Z,71.00
2023-05-19T00:14:10.698Z,71.20
2023-05-19T00:16:43.211Z,72.20
2023-05-19T00:19:10.796Z,71.90
2023-05-19T00:21:40.983Z,71.40
2023-05-19T00:24:08.444Z,71.90
2023-05-19T00:26:35.614Z,73.70
2023-05-19T00:29:06.047Z,73.20
2023-05-19T00:31:34.251Z,73.80
2023-05-19T00:34:02.025Z,73.60
2023-05-19T00:36:29.295Z,73.90
2023-05-19T00:38:56.601Z,73.50
2023-05-19T00:41:23.866Z,73.60
2023-05-19T00:43:51.366Z,74.40
2023-05-19T00:46:19.763Z,75.20
2023-05-19T00:48:46.904Z,74.20
2023-05-19T00:51:16.943Z,74.40
2023-05-19T00:53:49.367Z,74.30
2023-05-19T00:56:17.606Z,74.80
2023-05-19T00:58:45.447Z,76.00
2023-05-19T01:01:17.083Z,74.90
2023-05-19T01:03:45.226Z,73.60
2023-05-19T01:06:12.789Z,74.30
2023-05-19T01:08:40.164Z,76.30
2023-05-19T01:11:08.407Z,76.10
2023-05-19T01:13:37.176Z,75.00
2023-05-19T01:16:14.445Z,75.30
2023-05-19T01:19:02.090Z,76.10
2023-05-19T01:21:56.512Z,76.90
2023-05-19T01:25:05.316Z,77.20
2023-05-19T01:28:18.323Z,77.00
2023-05-19T01:30:49.235Z,78.10
2023-05-19T01:33:18.072Z,77.80
2023-05-19T01:35:47.754Z,77.60
2023-05-19T01:38:18.152Z,77.30
2023-05-19T01:40:46.236Z,77.80
2023-05-19T01:43:19.982Z,78.10
2023-05-19T01:45:48.247Z,78.40
2023-05-19T01:48:16.570Z,78.40
2023-05-19T01:50:46.252Z,78.50
2023-05-19T01:53:13.549Z,78.30
2023-05-19T01:55:48.036Z,77.60
2023-05-19T01:58:33.292Z,78.10
2023-05-19T02:01:20.432Z,77.20
2023-05-19T02:04:25.449Z,77.60
2023-05-19T02:07:01.209Z,78.50
2023-05-19T02:09:59.361Z,79.20
2023-05-19T02:12:33.193Z,79.10
2023-05-19T02:15:10.101Z,79.40
2023-05-19T02:17:42.242Z,79.40
2023-05-19T02:20:11.821Z,79.50
2023-05-19T02:22:39.182Z,79.30
2023-05-19T02:25:10.140Z,79.20
2023-05-19T02:27:39.384Z,78.90
2023-05-19T02:30:08.942Z,79.70
2023-05-19T02:32:37.400Z,79.30
2023-05-19T02:35:05.265Z,79.10
2023-05-19T02:37:32.557Z,79.50
2023-05-19T02:39:59.870Z,79.70
2023-05-19T02:42:27.055Z,79.80
2023-05-19T02:44:55.182Z,79.70
2023-05-19T02:47:22.489Z,79.10
2023-05-19T02:49:49.624Z,79.50
2023-05-19T02:52:16.836Z,79.50
2023-05-19T02:54:44.180Z,79.20
2023-05-19T02:57:11.384Z,80.30
2023-05-19T02:59:38.533Z,80.50
2023-05-19T03:02:05.883Z,80.00
2023-05-19T03:04:33.034Z,79.60
2023-05-19T03:07:00.265Z,79.80
2023-05-19T03:09:27.436Z,80.30
2023-05-19T03:11:54.639Z,80.60
2023-05-19T03:14:24.004Z,80.70
2023-05-19T03:16:51.597Z,80.40
2023-05-19T03:19:18.818Z,80.60
2023-05-19T03:21:46.410Z,80.60
2023-05-19T03:24:13.928Z,80.20
2023-05-19T03:26:42.124Z,80.70
2023-05-19T03:29:09.269Z,80.70
2023-05-19T03:31:37.685Z,80.80
2023-05-19T03:34:05.612Z,80.80
2023-05-19T03:36:32.937Z,80.60
2023-05-19T03:39:00.889Z,81.20
2023-05-19T03:41:28.267Z,80.40
2023-05-19T03:43:56.262Z,80.50
2023-05-19T03:46:23.561Z,80.30
2023-05-19T03:49:17.047Z,80.10
2023-05-19T03:52:03.450Z,79.60
2023-05-19T03:54:57.775Z,80.30
2023-05-19T03:57:25.077Z,80.50
2023-05-19T03:59:53.747Z,80.50
2023-05-19T04:02:21.946Z,80.30
2023-05-19T04:04:50.766Z,79.70
2023-05-19T04:07:18.112Z,79.90
2023-05-19T04:09:45.697Z,80.20
2023-05-19T04:12:12.883Z,79.70
2023-05-19T04:14:39.950Z,79.40
2023-05-19T04:17:07.404Z,77.90
2023-05-19T04:19:34.590Z,76.50
2023-05-19T04:22:02.223Z,76.00
2023-05-19T04:24:30.113Z,75.80
2023-05-19T04:26:57.426Z,75.60
2023-05-19T04:29:26.627Z,77.30
2023-05-19T04:31:53.785Z,77.00
2023-05-19T04:34:20.992Z,78.00
2023-05-19T04:36:50.956Z,77.80
2023-05-19T04:39:21.536Z,77.10
2023-05-19T04:41:48.949Z,76.80
2023-05-19T04:44:18.389Z,75.90
2023-05-19T04:46:48.022Z,76.00
2023-05-19T04:49:15.416Z,76.50
2023-05-19T04:51:42.861Z,75.20
2023-05-19T04:54:10.364Z,74.70
2023-05-19T04:56:37.920Z,74.70
2023-05-19T04:59:06.986Z,74.80
2023-05-19T05:01:34.248Z,75.20
2023-05-19T05:04:02.748Z,74.30
2023-05-19T05:06:32.962Z,74.20
2023-05-19T05:09:08.220Z,74.20
2023-05-19T05:11:36.213Z,73.90
2023-05-19T05:14:06.387Z,73.90
2023-05-19T05:16:34.268Z,73.70
2023-05-19T05:19:02.666Z,73.50
2023-05-19T05:21:33.032Z,74.70
2023-05-19T05:24:00.818Z,73.90
2023-05-19T05:26:33.655Z,74.40
2023-05-19T05:29:03.134Z,74.20
2023-05-19T05:31:31.482Z,74.50
2023-05-19T05:34:01.762Z,73.90
2023-05-19T05:36:35.108Z,74.50
2023-05-19T05:39:02.869Z,73.60
2023-05-19T05:41:35.309Z,73.70
2023-05-19T05:44:07.910Z,74.20
2023-05-19T05:46:35.315Z,73.90
2023-05-19T05:49:03.621Z,73.80
2023-05-19T05:52:09.146Z,73.60
2023-05-19T05:55:16.601Z,73.40
2023-05-19T05:57:44.748Z,72.90
2023-05-19T06:00:21.921Z,72.70
2023-05-19T06:02:53.705Z,72.70
2023-05-19T06:05:23.732Z,72.00
2023-05-19T06:07:51.059Z,72.00
2023-05-19T06:10:23.837Z,72.30
2023-05-19T06:12:51.502Z,71.30
2023-05-19T06:15:18.643Z,71.50
2023-05-19T06:18:06.431Z,71.30
2023-05-19T06:20:36.872Z,71.80
2023-05-19T06:23:04.152Z,71.10
2023-05-19T06:25:31.640Z,71.10
2023-05-19T06:30:47.468Z,71.20
2023-05-19T06:33:26.772Z,71.20
2023-05-19T06:35:58.535Z,70.00
2023-05-19T06:38:29.184Z,69.90
2023-05-19T06:41:01.735Z,70.20
2023-05-19T06:43:31.508Z,69.50
2023-05-19T06:46:15.450Z,70.40
2023-05-19T06:52:11.771Z,68.60
2023-05-19T06:54:28.656Z,67.90
2023-05-19T06:57:00.144Z,68.40
2023-05-19T06:59:45.784Z,69.20
2023-05-19T07:02:32.809Z,68.00
2023-05-19T07:05:39.259Z,68.10
2023-05-19T07:08:09.420Z,67.70
2023-05-19T07:10:37.208Z,67.80
2023-05-19T07:13:09.080Z,67.40
2023-05-19T07:15:36.860Z,67.20
2023-05-19T07:18:04.277Z,67.80
2023-05-19T07:20:31.643Z,68.00
2023-05-19T07:23:07.284Z,65.80
2023-05-19T07:26:00.585Z,65.30
2023-05-19T07:28:40.755Z,66.10
2023-05-19T07:34:25.668Z,65.00
2023-05-19T07:36:52.967Z,64.80
2023-05-19T07:39:20.242Z,65.00
2023-05-19T07:41:52.779Z,66.30
2023-05-19T07:44:20.041Z,64.10
2023-05-19T07:46:47.689Z,63.90
2023-05-19T07:49:14.867Z,63.20
2023-05-19T07:51:42.138Z,63.90
2023-05-19T07:54:15.526Z,63.40
2023-05-19T07:56:43.980Z,63.10
2023-05-19T07:59:15.563Z,63.00
2023-05-19T08:01:42.801Z,63.40
2023-05-19T08:04:12.965Z,61.60
2023-05-19T08:06:42.858Z,60.30
2023-05-19T08:09:10.656Z,60.50
2023-05-19T08:11:38.161Z,62.70
2023-05-19T08:14:05.509Z,59.50
2023-05-19T08:16:32.717Z,60.30
2023-05-19T08:19:02.790Z,61.30
2023-05-19T08:21:30.065Z,59.70
2023-05-19T08:23:57.603Z,59.40
2023-05-19T08:26:27.377Z,58.80
2023-05-19T08:28:55.901Z,59.70
2023-05-19T08:31:23.274Z,58.60
2023-05-19T08:33:57.439Z,58.30
2023-05-19T08:36:40.945Z,57.60
2023-05-19T08:39:37.295Z,57.10
2023-05-19T08:42:08.236Z,55.50
2023-05-19T08:44:49.676Z,55.60
2023-05-19T08:47:38.178Z,53.50
2023-05-19T08:50:11.953Z,54.00
2023-05-19T08:52:57.864Z,55.80
2023-05-19T08:56:01.100Z,54.70
2023-05-19T08:58:31.301Z,55.20
2023-05-19T09:01:08.859Z,53.20
2023-05-19T09:03:43.065Z,56.10
2023-05-19T09:06:14.060Z,55.10
2023-05-19T09:08:47.331Z,52.50
2023-05-19T09:11:17.416Z,50.80
2023-05-19T09:13:44.809Z,55.50
2023-05-19T09:16:15.310Z,52.40
2023-05-19T09:19:06.486Z,50.20
2023-05-19T09:21:47.263Z,49.60
2023-05-19T09:24:17.886Z,50.60
2023-05-19T09:26:51.707Z,51.40
2023-05-19T09:29:23.449Z,53.10
2023-05-19T09:31:57.172Z,51.30
2023-05-19T09:34:28.065Z,52.10
2023-05-19T09:37:00.027Z,52.00
2023-05-19T09:39:30.790Z,50.90
2023-05-19T09:41:58.955Z,50.10
2023-05-19T09:44:33.913Z,48.80
2023-05-19T09:47:16.607Z,49.80
2023-05-19T09:49:49.863Z,49.50
2023-05-19T09:52:20.815Z,49.00
2023-05-19T09:54:51.761Z,49.50
2023-05-19T09:57:37.165Z,48.20
2023-05-19T10:00:22.701Z,48.40
2023-05-19T10:02:53.020Z,50.80
2023-05-19T10:05:24.119Z,50.50
2023-05-19T10:07:55.704Z,49.30
2023-05-19T10:10:44.424Z,51.50
2023-05-19T10:13:22.416Z,49.70
2023-05-19T10:15:58.662Z,48.90
2023-05-19T10:18:32.237Z,50.20
2023-05-19T10:21:01.480Z,47.80
2023-05-19T10:23:30.175Z,46.80
2023-05-19T10:26:00.892Z,51.00
2023-05-19T10:28:42.730Z,50.20
2023-05-19T10:31:22.297Z,47.90
2023-05-19T10:34:23.157Z,48.20
2023-05-19T10:37:19.737Z,48.60
2023-05-19T10:39:56.447Z,47.70
2023-05-19T10:42:41.303Z,50.50
2023-05-19T10:45:53.091Z,46.70
2023-05-19T10:48:31.950Z,48.50
2023-05-19T10:51:12.279Z,47.10
2023-05-19T10:53:50.214Z,46.90
2023-05-19T10:56:41.415Z,47.70
2023-05-19T10:59:37.282Z,46.60
2023-05-19T11:02:09.151Z,47.40
2023-05-19T11:04:51.673Z,47.60
2023-05-19T11:07:21.887Z,48.40
2023-05-19T11:09:52.791Z,49.50
2023-05-19T11:12:28.465Z,50.30
2023-05-19T11:14:56.020Z,49.10
2023-05-19T11:17:25.809Z,47.00
2023-05-19T11:19:59.349Z,47.80
2023-05-19T11:22:29.718Z,49.50
2023-05-19T11:24:58.065Z,47.40
2023-05-19T11:27:34.460Z,47.40
2023-05-19T11:30:11.818Z,47.80
2023-05-19T11:32:44.655Z,47.70
2023-05-19T11:35:15.722Z,49.50
2023-05-19T11:37:43.150Z,48.30
2023-05-19T11:40:12.468Z,47.10
2023-05-19T11:42:39.749Z,47.60
2023-05-19T11:45:08.332Z,46.10
2023-05-19T11:47:51.741Z,44.60
2023-05-19T11:50:26.714Z,46.60
2023-05-19T11:52:54.979Z,45.50
2023-05-19T11:55:24.624Z,44.70
2023-05-19T11:58:08.032Z,48.10
2023-05-19T12:00:39.664Z,47.00
2023-05-19T12:03:10.185Z,45.40
2023-05-19T12:05:54.735Z,47.90
2023-05-19T12:08:29.241Z,45.60
2023-05-19T12:10:57.363Z,48.30
2023-05-19T12:13:25.657Z,46.50
2023-05-19T12:16:11.150Z,47.70
2023-05-19T12:18:41.072Z,44.70
2023-05-19T12:21:11.371Z,43.60
2023-05-19T12:23:41.651Z,44.90
2023-05-19T12:26:12.418Z,45.70
2023-05-19T12:28:41.855Z,45.30
2023-05-19T12:31:09.328Z,45.00
2023-05-19T12:33:39.671Z,48.00
2023-05-19T12:36:12.891Z,44.10
2023-05-19T12:38:42.345Z,46.50
2023-05-19T12:41:15.246Z,45.60
2023-05-19T12:43:51.002Z,45.70
2023-05-19T12:46:20.043Z,44.90
2023-05-19T12:48:47.888Z,45.00
2023-05-19T12:51:21.833Z,43.60
2023-05-19T12:53:50.770Z,46.80
2023-05-19T12:56:17.989Z,47.30
2023-05-19T12:58:46.047Z,45.20
2023-05-19T13:01:19.497Z,43.00
2023-05-19T13:03:47.154Z,43.30
2023-05-19T13:06:14.702Z,45.30
2023-05-19T13:08:42.045Z,44.80
2023-05-19T13:11:09.183Z,43.60
2023-05-19T13:13:36.356Z,43.40
2023-05-19T13:16:03.501Z,42.60
2023-05-19T13:18:32.529Z,41.20
2023-05-19T13:20:59.708Z,40.40
2023-05-19T13:23:27.088Z,40.30
2023-05-19T13:25:54.262Z,40.70
2023-05-19T13:28:21.470Z,42.90
2023-05-19T13:30:49.649Z,42.70
2023-05-19T13:33:17.264Z,42.90
2023-05-19T13:35:44.488Z,38.90
2023-05-19T13:38:11.712Z,40.60
2023-05-19T13:40:40.099Z,41.50
2023-05-19T13:43:08.656Z,41.70
2023-05-19T13:45:36.095Z,41.10
2023-05-19T13:48:03.399Z,43.70
2023-05-19T13:50:30.670Z,44.20
2023-05-19T13:52:57.814Z,42.30
2023-05-19T13:55:27.183Z,41.10
2023-05-19T13:57:54.561Z,41.60
2023-05-19T14:00:21.818Z,40.20
2023-05-19T14:02:49.139Z,41.00
2023-05-19T14:05:16.390Z,41.30
2023-05-19T14:07:44.567Z,42.00
2023-05-19T14:10:12.148Z,40.50
2023-05-19T14:12:49.420Z,40.30
2023-05-19T14:15:26.978Z,41.30
2023-05-19T14:17:54.308Z,41.60
2023-05-19T14:20:21.836Z,41.00
2023-05-19T14:22:49.008Z,42.30
2023-05-19T14:25:16.236Z,40.70
2023-05-19T14:27:43.345Z,41.20
2023-05-19T14:30:11.122Z,42.20
2023-05-19T14:32:38.246Z,42.10
2023-05-19T14:35:06.378Z,41.60
2023-05-19T14:37:33.452Z,44.30
2023-05-19T14:40:00.771Z,42.70
2023-05-19T14:42:27.847Z,41.10
2023-05-19T14:44:55.039Z,42.20
2023-05-19T14:47:22.163Z,45.40
2023-05-19T14:49:49.497Z,44.60
2023-05-19T14:52:17.841Z,39.40
2023-05-19T14:54:45.040Z,39.30
2023-05-19T14:57:12.233Z,38.70
2023-05-19T14:59:39.549Z,41.90
2023-05-19T15:02:07.348Z,41.10
2023-05-19T15:04:34.487Z,40.60
2023-05-19T15:09:31.813Z,37.70
2023-05-19T15:12:01.157Z,35.70
2023-05-19T15:14:30.565Z,37.00
2023-05-19T15:16:58.706Z,36.70
2023-05-19T15:19:26.168Z,36.00
2023-05-19T15:21:53.688Z,36.80
2023-05-19T15:24:20.798Z,36.80
2023-05-19T15:26:48.179Z,36.60
2023-05-19T15:29:15.384Z,36.50
2023-05-19T15:31:42.608Z,38.30
2023-05-19T15:34:09.730Z,39.70
2023-05-19T15:36:36.897Z,35.70
2023-05-19T15:39:04.070Z,37.50
2023-05-19T15:41:31.235Z,36.30
2023-05-19T15:44:00.453Z,36.50
2023-05-19T15:46:28.741Z,38.00
2023-05-19T15:48:55.888Z,37.50
2023-05-19T15:51:23.730Z,35.90
2023-05-19T15:53:50.895Z,35.90
2023-05-19T15:56:19.439Z,35.60
2023-05-19T15:58:46.552Z,35.20
2023-05-19T16:01:15.197Z,35.30
2023-05-19T16:03:42.596Z,35.00
2023-05-19T16:06:09.934Z,37.40
2023-05-19T16:08:38.009Z,35.90
2023-05-19T16:11:05.646Z,35.80
2023-05-19T16:13:33.891Z,34.20
2023-05-19T16:16:01.389Z,34.60
2023-05-19T16:18:31.238Z,36.60
2023-05-19T16:20:58.447Z,36.50
2023-05-19T16:23:25.685Z,37.10
2023-05-19T16:25:54.671Z,37.40
2023-05-19T16:28:23.245Z,35.20
2023-05-19T16:30:51.927Z,34.80
2023-05-19T16:33:19.214Z,34.90
2023-05-19T16:35:46.467Z,35.60
2023-05-19T16:38:13.602Z,36.30
2023-05-19T16:40:40.824Z,34.90
2023-05-19T16:43:07.960Z,36.90
2023-05-19T16:45:35.115Z,36.40
2023-05-19T16:48:02.482Z,35.50
2023-05-19T16:50:29.845Z,35.30
2023-05-19T16:52:56.959Z,35.90
2023-05-19T16:55:25.377Z,35.20
2023-05-19T16:57:52.557Z,36.00
2023-05-19T17:00:19.964Z,34.80
2023-05-19T17:02:47.200Z,37.50
2023-05-19T17:05:14.419Z,37.20
2023-05-19T17:07:41.648Z,36.40
2023-05-19T17:10:09.580Z,38.20
2023-05-19T17:12:36.955Z,38.10
2023-05-19T17:15:04.568Z,38.80
2023-05-19T17:17:31.737Z,39.60
2023-05-19T17:19:58.890Z,40.70
2023-05-19T17:22:27.376Z,39.50
2023-05-19T17:24:55.459Z,40.20
2023-05-19T17:27:23.723Z,41.10
2023-05-19T17:29:50.846Z,40.70
2023-05-19T17:32:18.004Z,40.70
2023-05-19T17:34:45.251Z,41.10
2023-05-19T17:37:16.462Z,41.10
2023-05-19T17:39:43.593Z,41.20
2023-05-19T17:42:11.104Z,41.50
2023-05-19T17:44:38.257Z,40.40
2023-05-19T17:47:07.248Z,40.70
2023-05-19T17:49:34.678Z,41.90
2023-05-19T17:52:02.299Z,41.90
2023-05-19T17:54:29.936Z,41.90
2023-05-19T17:57:01.713Z,41.30
2023-05-19T17:59:30.235Z,41.90
2023-05-19T18:01:57.785Z,41.40
2023-05-19T18:04:25.540Z,42.90
2023-05-19T18:06:53.330Z,42.00
2023-05-19T18:09:23.507Z,42.50
2023-05-19T18:11:50.764Z,42.90
2023-05-19T18:14:18.201Z,43.20
2023-05-19T18:16:45.510Z,43.00
2023-05-19T18:19:12.784Z,42.80
2023-05-19T18:21:39.986Z,43.70
2023-05-19T18:24:07.271Z,43.90
2023-05-19T18:26:34.395Z,43.90
2023-05-19T18:29:04.845Z,44.30
2023-05-19T18:31:32.155Z,44.40
2023-05-19T18:33:59.409Z,45.00
2023-05-19T18:36:26.735Z,45.10
2023-05-19T18:38:55.144Z,45.30
2023-05-19T18:41:22.425Z,45.90
2023-05-19T18:43:49.673Z,46.30
2023-05-19T18:46:20.950Z,45.00
2023-05-19T18:48:50.596Z,46.00
2023-05-19T18:51:19.858Z,46.20
2023-05-19T18:53:49.438Z,46.10
2023-05-19T18:56:27.191Z,46.50
2023-05-19T18:58:55.077Z,46.30
2023-05-19T19:01:24.854Z,45.70
2023-05-19T19:03:54.548Z,46.10
2023-05-19T19:06:24.897Z,46.10
2023-05-19T19:08:52.910Z,47.20
2023-05-19T19:11:21.763Z,47.60
2023-05-19T19:13:55.583Z,48.40
2023-05-19T19:16:25.701Z,47.80
2023-05-19T19:18:53.139Z,47.80
2023-05-19T19:21:22.926Z,48.60
2023-05-19T19:23:54.991Z,48.40
2023-05-19T19:26:33.202Z,48.40
2023-05-19T19:29:00.585Z,49.10
2023-05-19T19:31:33.465Z,49.30
2023-05-19T19:34:09.229Z,48.50
2023-05-19T19:36:40.353Z,49.50
2023-05-19T19:39:08.349Z,49.40
2023-05-19T19:41:37.864Z,49.90
2023-05-19T19:44:05.446Z,50.30
2023-05-19T19:46:40.025Z,50.10
2023-05-19T19:49:08.626Z,51.00
2023-05-19T19:51:37.227Z,51.20
2023-05-19T19:54:09.405Z,50.90
2023-05-19T19:56:42.367Z,51.40
2023-05-19T19:59:14.425Z,51.60
2023-05-19T20:01:44.604Z,51.30
2023-05-19T20:04:13.502Z,51.40
2023-05-19T20:06:48.076Z,51.10
2023-05-19T20:09:31.908Z,51.50
2023-05-19T20:12:10.338Z,51.20
2023-05-19T20:14:38.918Z,52.10
2023-05-19T20:17:06.281Z,51.80
2023-05-19T20:19:38.650Z,52.00
2023-05-19T20:22:05.983Z,52.20
2023-05-19T20:24:38.149Z,52.60
2023-05-19T20:27:09.499Z,52.20
2023-05-19T20:29:36.839Z,52.20
2023-05-19T20:32:04.270Z,52.60
2023-05-19T20:34:34.186Z,52.60
2023-05-19T20:37:01.800Z,52.90
2023-05-19T20:39:29.189Z,52.50
2023-05-19T20:41:56.600Z,52.40
2023-05-19T20:44:24.082Z,52.70
2023-05-19T20:46:51.562Z,52.80
2023-05-19T20:49:23.668Z,53.10
2023-05-19T20:51:51.032Z,53.40
2023-05-19T20:54:22.739Z,52.70
2023-05-19T20:56:52.069Z,52.70
2023-05-19T20:59:19.327Z,53.30
2023-05-19T21:01:48.397Z,52.60
2023-05-19T21:04:15.802Z,53.20
2023-05-19T21:06:49.287Z,53.40
2023-05-19T21:09:19.012Z,53.00
2023-05-19T21:11:53.340Z,53.00
2023-05-19T21:14:21.989Z,53.00
2023-05-19T21:16:55.731Z,52.80
2023-05-19T21:19:28.420Z,52.70
2023-05-19T21:21:58.135Z,52.90
2023-05-19T21:24:25.662Z,53.10
2023-05-19T21:26:55.115Z,53.10
2023-05-19T21:29:26.093Z,53.10
2023-05-19T21:31:57.732Z,53.40
2023-05-19T21:34:38.569Z,53.00
2023-05-19T21:37:23.044Z,53.90
2023-05-19T21:39:52.934Z,53.90
2023-05-19T21:42:25.216Z,54.30
2023-05-19T21:45:03.917Z,54.50
2023-05-19T21:47:41.113Z,54.20
2023-05-19T21:50:15.641Z,54.80
2023-05-19T21:52:43.148Z,55.10
2023-05-19T21:55:10.842Z,55.00
2023-05-19T21:57:54.684Z,55.30
2023-05-19T22:00:25.757Z,55.50
2023-05-19T22:03:22.174Z,55.90
2023-05-19T22:06:00.415Z,56.10
2023-05-19T22:08:45.443Z,56.30
2023-05-19T22:11:21.467Z,56.70
2023-05-19T22:13:57.574Z,56.60
2023-05-19T22:16:26.045Z,56.80
2023-05-19T22:19:16.158Z,56.90
2023-05-19T22:21:45.925Z,57.20
2023-05-19T22:24:25.268Z,57.60
2023-05-19T22:26:55.190Z,57.80
2023-05-19T22:29:36.054Z,58.10
2023-05-19T22:32:27.027Z,58.70
2023-05-19T22:35:17.487Z,58.80
2023-05-19T22:37:57.913Z,59.00
2023-05-19T22:40:25.431Z,59.30
2023-05-19T22:42:57.004Z,59.60
2023-05-19T22:45:26.793Z,59.50
2023-05-19T22:48:09.915Z,59.60
2023-05-19T22:50:46.409Z,60.00
2023-05-19T22:53:22.963Z,60.00
2023-05-19T22:56:03.290Z,60.50
2023-05-19T22:58:34.094Z,60.50
2023-05-19T23:01:04.622Z,60.70
2023-05-19T23:03:36.230Z,61.00
2023-05-19T23:06:20.988Z,61.10
2023-05-19T23:09:10.765Z,61.30
2023-05-19T23:11:52.106Z,61.50
2023-05-19T23:14:32.973Z,61.30
2023-05-19T23:17:03.283Z,61.70
2023-05-19T23:19:43.542Z,61.60
2023-05-19T23:22:27.443Z,61.70
2023-05-19T23:25:03.522Z,62.00
2023-05-19T23:27:34.388Z,61.70
2023-05-19T23:30:33.126Z,61.80
2023-05-19T23:33:10.216Z,62.20
2023-05-19T23:35:44.439Z,62.10
2023-05-19T23:38:15.699Z,62.30
2023-05-19T23:40:51.585Z,62.40
2023-05-19T23:43:29.025Z,62.80
2023-05-19T23:46:01.941Z,62.60
2023-05-19T23:48:43.666Z,62.70
2023-05-19T23:51:24.186Z,62.20
2023-05-19T23:53:52.829Z,62.20
2023-05-19T23:56:31.252Z,62.30
2023-05-19T23:59:13.529Z,62.20
